Arrington, Virginia
Current Conditions -  °F | °C
As of 4:15 AM on Monday 24 Nov 2014 (Local Time) from KW13 Reporting Station
Scattered Clouds Scattered Clouds  
Wind Chill: 59°   Ceiling: Unl
Heat Index: 59°   Visibility: 10mi
Dew Point: 53°   Wind: 15mph
Humidity: 81%   Direction: 180°S
Pressure: 29.64"   Gusts: 22mph
Location:  37.68°N, 78.9°W
Report Text: KW13 240915Z AUTO 18013G19KT 10SM SCT034 15/12 A2964 RMK AO1 T01480115
Loading
Personal Weather Stations






























Interactive Weather Map New forecast layout! Learn more

10-Day Weather Forecast

Advertisements
Track Severe Weather on mobile